Flight Track Log - Related Links

Times and Time Zones

All times are in EDT time to prevent confusion due to time zone crossing. See the GJS3618 flight status page for this flight to view local times or setup timezone preferences in your user account.

Time Position Orientation Groundspeed Altitude Reporting Facility
EDT Latitude Longitude Course Direction KTS MPH feet Rate Location/Type
Thu 09:16:29 AM 42.0000 -87.8833 20° North 142 163 2,300  Level Chicago TRACON
Thu 09:17:35 AM 42.0667 -87.8500 20° North 245 282 4,200 862 Climbing Chicago TRACON
Thu 09:19:37 AM 42.1150 -87.6725 70° East 285 328 5,000 984 Climbing Chicago Center
Thu 09:20:38 AM 42.1278 -87.5672 81° East 285 328 7,200 2,634 Climbing Chicago Center
Thu 09:21:40 AM 42.1467 -87.4583 77° East 303 349 10,400 2,634 Climbing Chicago Center
Thu 09:22:41 AM 42.1911 -87.3233 66° East 332 382 12,600 1,902 Climbing Chicago Center
Thu 09:23:43 AM 42.2353 -87.1925 65° Northeast 378 435 14,300 1,854 Climbing Chicago Center
Thu 09:24:44 AM 42.2786 -87.0525 67° East 401 461 16,400 2,195 Climbing Chicago Center
Thu 09:25:46 AM 42.2856 -86.8958 87° East 417 480 18,800 2,081 Climbing Chicago Center
Thu 09:26:48 AM 42.2914 -86.7403 87° East 418 481 20,700 1,694 Climbing Chicago Center
Thu 09:27:50 AM 42.2992 -86.5522 87° East 448 516 22,300 1,561 Climbing Chicago Center
Thu 09:28:51 AM 42.3058 -86.3869 87° East 465 535 23,900 1,561 Climbing Chicago Center
Thu 09:29:53 AM 42.3128 -86.2100 87° East 474 545 25,500 1,790 Climbing Chicago Center
Thu 09:30:55 AM 42.3161 -86.0356 88° East 472 543 27,600 2,081 Climbing Chicago Center
Thu 09:31:57 AM 42.2717 -85.8508 108° East 435 501 29,800 1,561 Climbing Chicago Center
Thu 09:32:58 AM 42.2536 -85.6889 99° East 449 517 30,800 829 Climbing Chicago Center
Thu 09:34:00 AM 42.2606 -85.5125 87° East 471 542 31,500 779 Climbing Chicago Center
Thu 09:35:09 AM 42.2694 -85.3036 87° East 506 582 32,500 2,558 Climbing Cleveland Center
Thu 09:36:09 AM 42.2792 -85.1161 86° East 506 582 37,000 1,200 Climbing Cleveland Center
Thu 09:37:09 AM 42.2989 -84.9267 82° East 506 582 34,900 -1,000 Descending Cleveland Center
Thu 09:38:09 AM 42.3142 -84.7422 84° East 501 577 35,000 50 Climbing Cleveland Center
Thu 09:39:09 AM 42.3272 -84.5492 85° East 501 577 35,000 150 Level Cleveland Center
Thu 09:40:09 AM 42.3419 -84.3561 84° East 501 577 35,300 600 Climbing Cleveland Center
Thu 09:41:09 AM 42.3606 -84.1633 82° East 506 582 36,200 850 Climbing Cleveland Center
Thu 09:42:09 AM 42.3769 -83.9703 83° East 511 588 37,000 400 Climbing Cleveland Center
Thu 09:43:09 AM 42.3931 -83.7742 84° East 517 595 37,000  Level Cleveland Center
Thu 09:44:09 AM 42.4092 -83.5614 84° East 517 595 37,000  Level Cleveland Center
Thu 09:45:09 AM 42.4161 -83.3703 87° East 511 588 37,000  Level Cleveland Center
Thu 09:46:09 AM 42.4222 -83.1933 87° East 511 588 37,000  Level Cleveland Center
Thu 09:47:09 AM 42.4289 -82.9828 87° East 516 594 37,000  Level Cleveland Center
Thu 09:48:09 AM 42.4350 -82.7889 87° East 516 594 37,000  Level Cleveland Center
Thu 09:49:09 AM 42.4406 -82.5919 88° East 516 594 37,000  Level Cleveland Center
Thu 09:50:09 AM 42.4458 -82.3981 88° East 516 594 37,000  Level Cleveland Center
Thu 09:51:09 AM 42.4508 -82.2011 88° East 516 594 37,000  Level Cleveland Center
Thu 09:52:09 AM 42.4575 -82.0072 87° East 516 594 37,000  Level Cleveland Center
Thu 09:53:09 AM 42.4619 -81.8131 88° East 516 594 37,000  Level Cleveland Center
Thu 09:54:09 AM 42.4658 -81.6386 88° East 510 587 37,000  Level Cleveland Center
Thu 09:55:09 AM 42.4694 -81.4444 88° East 511 588 37,000  Level Cleveland Center
Thu 09:56:09 AM 42.4750 -81.2333 88° East 511 588 37,000  Level Cleveland Center
Thu 09:57:09 AM 42.4781 -81.0419 89° East 517 595 37,000  Level Cleveland Center
Thu 09:58:09 AM 42.4808 -80.8450 89° East 517 595 37,000  Level Cleveland Center
Thu 09:59:09 AM 42.4831 -80.6536 89° East 509 586 37,000  Level Cleveland Center
Thu 10:00:09 AM 42.4853 -80.4819 89° East 509 586 37,000  Level Cleveland Center
Thu 10:01:09 AM 42.4869 -80.2903 89° East 514 592 37,000  Level Cleveland Center
Thu 10:02:09 AM 42.4883 -80.0961 89° East 514 592 37,000  Level Cleveland Center
Thu 10:03:09 AM 42.4917 -79.9017 89° East 514 592 37,000  Level Cleveland Center
Thu 10:04:09 AM 42.4922 -79.7075 90° East 514 592 37,000  Level Cleveland Center
Thu 10:05:09 AM 42.4928 -79.5131 90° East 514 592 37,000  Level Cleveland Center
Thu 10:06:09 AM 42.4908 -79.3217 91° East 514 592 37,000  Level Cleveland Center
Thu 10:07:09 AM 42.5031 -79.1272 85° East 514 592 37,000 -100 Level Cleveland Center
Thu 10:08:09 AM 42.5172 -78.9325 84° East 514 592 36,800 -600 Descending Cleveland Center
Thu 10:09:09 AM 42.5311 -78.7461 84° East 514 592 35,800 -1,000 Descending Cleveland Center
Thu 10:10:09 AM 42.5403 -78.5569 86° East 514 592 34,800 -1,000 Descending Cleveland Center
Thu 10:11:09 AM 42.5536 -78.3678 84° East 503 579 33,800 -900 Descending Cleveland Center
Thu 10:12:09 AM 42.5644 -78.1783 85° East 503 579 33,000 -750 Descending Cleveland Center
Thu 10:13:09 AM 42.5750 -77.9919 86° East 498 573 32,300 -950 Descending Cleveland Center
Thu 10:14:09 AM 42.5892 -77.7911 84° East 498 573 31,100 -1,100 Descending Cleveland Center
Thu 10:15:09 AM 42.5989 -77.6072 86° East 493 567 30,100 -950 Descending Cleveland Center
Thu 10:16:09 AM 42.6086 -77.4233 86° East 488 562 29,200 -386 Descending Cleveland Center
Thu 10:18:00 AM 42.6253 -77.1111 86° East 486 559 29,000 -70 Descending Boston Center
Thu 10:19:01 AM 42.6331 -76.9194 87° East 497 572 29,000  Level Boston Center
Thu 10:20:11 AM 42.6447 -76.7256 85° East 504 580 29,000  Level Boston Center
Thu 10:21:12 AM 42.6553 -76.4975 86° East 509 586 29,000  Level Boston Center
Thu 10:22:10 AM 42.6639 -76.3117 86° East 509 586 29,000 -966 Level Boston Center
Thu 10:23:10 AM 42.6750 -76.0975 86° East 509 586 27,100 -1,934 Descending Boston Center
Thu 10:24:11 AM 42.6808 -75.9114 87° East 509 586 25,100 -2,115 Descending Boston Center
Thu 10:25:12 AM 42.6906 -75.7283 86° East 492 566 22,800 -2,218 Descending Boston Center
Thu 10:26:10 AM 42.6953 -75.5561 88° East 470 541 20,700 -2,017 Descending Boston Center
Thu 10:27:11 AM 42.7017 -75.3983 87° East 448 516 18,800 -1,623 Descending Boston Center
Thu 10:28:12 AM 42.7081 -75.2319 87° East 433 498 17,400 -1,438 Descending Boston Center
Thu 10:29:12 AM 42.7139 -75.0653 87° East 433 498 15,900 -1,525 Descending Boston Center
Thu 10:30:10 AM 42.7050 -74.9125 94° East 427 491 14,400 -1,554 Descending Boston Center
Thu 10:31:04 AM 42.6681 -74.7839 111° Southeast 406 467 13,000 -1,533 Descending Boston Center
Thu 10:31:40 AM 42.6469 -74.6956 108° East 403 464 12,100 -1,433 Descending Boston Center
Thu 10:32:11 AM 42.6275 -74.6214 110° East 415 478 11,400 -1,082 Descending Boston Center
Thu 10:32:41 AM 42.6119 -74.5561 108° East 388 447 11,000 -508 Descending Boston Center
Thu 10:33:10 AM 42.5986 -74.4850 104° East 384 442 10,900 -500 Descending Boston Center
Thu 10:33:41 AM 42.5936 -74.4228 96° East 356 410 10,500 -1,082 Descending Boston Center
Thu 10:34:11 AM 42.5886 -74.3550 96° East 362 417 9,800 -1,600 Descending Boston Center
Thu 10:34:41 AM 42.5853 -74.2928 94° East 332 382 8,900 -1,645 Descending Boston Center
Thu 10:35:13 AM 42.5800 -74.2306 97° East 340 391 8,100 -1,235 Descending Boston Center
Thu 10:35:49 AM 42.5769 -74.1628 93° East 323 372 7,500 -842 Descending Boston Center
Thu 10:36:10 AM 42.5753 -74.1403 96° East 319 367 7,300 -900 Descending Boston Center
Thu 10:36:49 AM 42.5703 -74.0556 95° East 250 288 6,600 -1,200 Descending Boston Center
Thu 10:37:10 AM 42.5706 -74.0300 89° East 278 320 6,100 -1,672 Descending Boston Center
Thu 10:37:50 AM 42.5422 -73.9814 128° Southeast 226 260 4,900 -1,770 Descending Boston Center
Thu 10:38:11 AM 42.5278 -73.9614 134° Southeast 221 254 4,300 -774 Descending Boston Center
Thu 10:38:52 AM 42.4928 -73.9297 146° Southeast 217 250 4,100 -290 Descending Boston Center
Thu 10:39:13 AM 42.4847 -73.9153 127° Southeast 215 247 4,000 -1,154 Descending Boston Center
Thu 10:40:10 AM 42.4917 -73.8450 82° East 170 196 2,600 -792 Descending Boston Center
Thu 10:40:59 AM 42.5233 -73.8261 24° Northeast 164 189 2,600 -207 Level Boston Center
Thu 10:42:06 AM 42.5694 -73.8075 17° North 153 176 2,200 -283 Descending Boston Center
Thu 10:43:06 AM 42.6131 -73.8056 North 157 181 2,000 7,645 Descending Boston Center
Thu 10:44:10 AM 42.6550 -73.7783 26° Northeast 153 176 18,000 -347 Climbing Boston Center
Thu 10:45:07 AM 42.6903 -73.8044 331° Northwest 120 138 1,300 -8,948 Descending Boston Center
Thu 10:46:06 AM 42.7256 -73.8053 359° North 113 130 700 -610 Descending Boston Center

Login

Don't have an account? Register now (free) for customized features, flight alerts, and more!